Archival Weather

Chicago O'Hare International

Chicago, Illinois (KORD)

Report from: Friday, March 30, 2012 6:51 PM CDT
Current time: Friday, June 21, 2024 8:07 PM CDT

Current weather – Weather history – Daily summaries
Weather forecast

Present weatherHaze
Temperature6.1°C (43.0°F)
Wind chill3.1°C (37.7°F)
Dew point2.8°C (37.0°F)
Winds 8 kts (4.1 m/s, 9.2 mph) North-Northeast (20°)
Visibility5 mi. (8 km)
Clouds Ceiling: Overcast 1,000 ft. (305 m)
Altimeter29.85 in.Hg (1011 mB)
Relative humidity79 %
Density altitude-893 ft. (-272 m)
Sea-level pressure101.1 kPa (1011 mB, 29.86 in.Hg)
Max temp last 6 hours11.1°C (52.0°F)
Min temp last 6 hours6.1°C (43.0°F)
Remarks System requires maintenance
Automated weather observing station with precipitation discriminator
Pressure rising more slowly
Flight conditions Marginal Visual Meteorological Conditions
Raw data2012-03-30 23:51 KORD 302351Z 02008KT 5SM HZ OVC010 06/03 A2985 RMK AO2 SLP112 T00610028 10111 20061 51021 $
An error has occurred. This application may no longer respond until reloaded. Reload 🗙